Time;durP1;ratioP1;P1;durP2;ratioP2;P2;SDS_P1;SDS_P2;PMS_P1;PMS_P2;Temp;Humidity;BMP_temperature;BMP_pressure;BME280_temperature;BME280_humidity;BME280_pressure;Samples;Min_cycle;Max_cycle;Signal;HPM_P1;HPM_P2
2023/06/17 00:00:37;;;;;;;4.20;3.67;;;17.90;99.90;;;;;;5152923;27;20450;-64
2023/06/17 00:03:03;;;;;;;5.57;4.13;;;18.00;99.90;;;;;;5153079;27;20192;-64
2023/06/17 00:05:29;;;;;;;5.10;3.90;;;18.10;99.90;;;;;;5152669;27;20922;-65
2023/06/17 00:07:54;;;;;;;6.70;4.37;;;18.20;99.90;;;;;;5152749;27;20218;-65
2023/06/17 00:10:20;;;;;;;6.03;4.00;;;18.00;99.90;;;;;;5116958;27;20662;-65
2023/06/17 00:12:46;;;;;;;5.63;5.03;;;18.00;99.90;;;;;;5152757;27;20196;-64
2023/06/17 00:15:12;;;;;;;7.90;4.80;;;17.90;99.90;;;;;;5152786;27;20675;-66
2023/06/17 00:17:40;;;;;;;10.80;4.03;;;17.80;99.90;;;;;;5134368;27;20202;-64
2023/06/17 00:20:11;;;;;;;12.40;4.80;;;17.70;99.90;;;;;;5152403;27;20473;-64
2023/06/17 00:22:39;;;;;;;4.17;3.50;;;17.70;99.90;;;;;;5152880;27;20457;-64
2023/06/17 00:25:05;;;;;;;5.90;4.30;;;17.60;99.90;;;;;;5152469;27;20960;-65
2023/06/17 00:27:31;;;;;;;5.57;4.30;;;17.60;99.90;;;;;;5152338;27;20476;-64
2023/06/17 00:29:59;;;;;;;6.00;4.20;;;17.60;99.90;;;;;;5133935;27;20433;-65
2023/06/17 00:32:26;;;;;;;4.90;4.30;;;17.60;99.90;;;;;;5152696;27;20488;-65
2023/06/17 00:34:52;;;;;;;5.80;3.80;;;17.60;99.90;;;;;;5152485;27;20423;-64
2023/06/17 00:37:18;;;;;;;7.97;4.30;;;17.70;99.90;;;;;;5152756;27;20477;-65
2023/06/17 00:39:43;;;;;;;5.23;3.70;;;17.80;99.90;;;;;;5152818;27;20938;-64
2023/06/17 00:42:11;;;;;;;5.83;3.33;;;17.90;99.90;;;;;;5134389;27;20180;-65
2023/06/17 00:44:39;;;;;;;4.50;3.77;;;17.90;99.90;;;;;;5152984;27;20193;-64
2023/06/17 00:47:06;;;;;;;5.83;4.30;;;18.00;99.90;;;;;;5153130;27;20464;-64
2023/06/17 00:49:40;;;;;;;10.80;4.47;;;17.90;99.90;;;;;;5152846;27;20827;-64
2023/06/17 00:52:07;;;;;;;5.80;4.60;;;17.40;99.90;;;;;;5153008;27;20406;-64
2023/06/17 00:54:37;;;;;;;6.50;5.10;;;17.00;99.90;;;;;;5153119;27;20413;-64
2023/06/17 00:57:11;;;;;;;7.83;5.10;;;16.80;99.90;;;;;;5153098;27;20417;-64
2023/06/17 00:59:38;;;;;;;7.17;4.93;;;16.60;99.90;;;;;;5152947;27;20436;-64
2023/06/17 01:02:09;;;;;;;6.77;4.80;;;16.50;99.90;;;;;;5152826;27;20507;-64
2023/06/17 01:04:37;;;;;;;7.70;4.87;;;16.40;99.90;;;;;;5151781;27;20416;-65
2023/06/17 01:07:22;;;;;;;7.07;4.80;;;16.30;99.90;;;;;;5152656;27;20579;-66
2023/06/17 01:09:54;;;;;;;7.63;4.80;;;16.30;99.90;;;;;;5152326;27;20425;-65
2023/06/17 01:12:26;;;;;;;7.80;5.57;;;16.20;99.90;;;;;;5152309;27;20496;-65
2023/06/17 01:14:54;;;;;;;10.50;4.57;;;16.10;99.90;;;;;;5134635;27;20437;-65
2023/06/17 01:17:20;;;;;;;14.37;5.83;;;16.10;99.90;;;;;;5152027;27;20428;-65
2023/06/17 01:19:48;;;;;;;6.30;4.40;;;16.00;99.90;;;;;;5151888;27;20467;-65
2023/06/17 01:22:16;;;;;;;11.90;4.73;;;15.90;99.90;;;;;;5133562;27;20436;-65
2023/06/17 01:24:43;;;;;;;5.73;4.50;;;15.80;99.90;;;;;;5151898;27;20805;-64
2023/06/17 01:27:08;;;;;;;5.83;5.20;;;15.80;99.90;;;;;;5132972;27;20484;-64
2023/06/17 01:29:37;;;;;;;10.20;4.50;;;15.70;99.90;;;;;;5133191;27;20838;-64
2023/06/17 01:32:05;;;;;;;7.00;5.00;;;15.70;99.90;;;;;;5151592;27;20186;-64
2023/06/17 01:34:56;;;;;;;5.40;4.60;;;15.70;99.90;;;;;;5151712;27;20427;-65
2023/06/17 01:37:42;;;;;;;5.43;3.93;;;15.70;99.90;;;;;;5151501;27;20494;-64
2023/06/17 01:40:13;;;;;;;8.17;4.87;;;15.70;99.90;;;;;;5151467;27;20432;-64
2023/06/17 01:42:48;;;;;;;9.83;5.03;;;15.60;99.90;;;;;;5151345;27;20413;-65
2023/06/17 01:45:14;;;;;;;5.17;4.67;;;15.60;99.90;;;;;;5132426;27;20500;-65
2023/06/17 01:47:40;;;;;;;5.27;4.77;;;15.50;99.90;;;;;;5150979;27;20860;-65
2023/06/17 01:50:07;;;;;;;4.90;4.40;;;15.30;99.90;;;;;;5150667;27;20431;-64
2023/06/17 01:52:33;;;;;;;4.73;4.20;;;15.30;99.90;;;;;;5151063;27;20904;-64
2023/06/17 01:54:59;;;;;;;8.60;5.47;;;15.30;99.90;;;;;;5150800;27;20411;-65
2023/06/17 01:57:26;;;;;;;6.53;5.13;;;15.30;99.90;;;;;;5132187;27;20457;-64
2023/06/17 01:59:53;;;;;;;6.47;5.30;;;15.20;99.90;;;;;;5150694;27;20447;-64
2023/06/17 02:02:19;;;;;;;6.30;5.20;;;15.20;99.90;;;;;;5150573;27;20426;-64
2023/06/17 02:04:47;;;;;;;5.20;4.33;;;15.20;99.90;;;;;;5131675;27;20433;-65
2023/06/17 02:07:13;;;;;;;10.83;4.97;;;15.10;99.90;;;;;;5150628;27;20221;-65
2023/06/17 02:09:39;;;;;;;7.73;4.70;;;15.10;99.90;;;;;;5150498;27;20849;-65
2023/06/17 02:12:05;;;;;;;7.80;4.70;;;15.00;99.90;;;;;;5150411;27;20478;-65
2023/06/17 02:14:31;;;;;;;5.90;4.80;;;15.00;99.90;;;;;;5150090;27;20542;-65
2023/06/17 02:16:56;;;;;;;6.60;5.60;;;14.90;99.90;;;;;;5150221;27;20415;-64
2023/06/17 02:19:22;;;;;;;7.60;5.10;;;14.90;99.90;;;;;;5149876;27;20201;-65
2023/06/17 02:21:48;;;;;;;10.57;4.70;;;14.80;99.90;;;;;;5150160;27;20182;-66
2023/06/17 02:24:14;;;;;;;7.03;5.30;;;15.00;99.90;;;;;;5150190;27;20938;-64
2023/06/17 02:26:41;;;;;;;6.40;5.00;;;14.70;99.90;;;;;;5150030;27;20449;-64
2023/06/17 02:29:07;;;;;;;6.47;4.63;;;14.60;99.90;;;;;;5149897;27;20466;-64
2023/06/17 02:31:33;;;;;;;6.30;5.10;;;14.30;99.90;;;;;;5149972;27;20843;-65
2023/06/17 02:34:00;;;;;;;5.33;4.67;;;14.20;99.90;;;;;;5149917;27;20462;-64
2023/06/17 02:36:26;;;;;;;8.80;5.90;;;14.10;99.90;;;;;;5149762;27;20429;-64
2023/06/17 02:38:53;;;;;;;7.40;5.10;;;14.10;99.90;;;;;;5149741;27;20431;-63
2023/06/17 02:41:19;;;;;;;8.40;5.00;;;14.10;99.90;;;;;;5149713;27;20208;-64
2023/06/17 02:43:45;;;;;;;6.43;5.40;;;14.10;99.90;;;;;;5131202;27;20515;-64
2023/06/17 02:46:11;;;;;;;7.57;5.70;;;14.30;99.90;;;;;;5149877;27;20414;-64
2023/06/17 02:48:37;;;;;;;9.03;4.90;;;14.30;99.90;;;;;;5149447;27;20250;-64
2023/06/17 02:51:04;;;;;;;5.73;4.77;;;14.40;99.90;;;;;;5149992;27;20431;-64
2023/06/17 02:53:29;;;;;;;7.57;5.27;;;14.30;99.90;;;;;;5149818;27;20184;-64
2023/06/17 02:55:55;;;;;;;10.23;5.43;;;14.30;99.90;;;;;;5149821;27;20972;-64
2023/06/17 02:58:21;;;;;;;8.10;5.53;;;14.20;99.90;;;;;;5149934;27;20224;-64
2023/06/17 03:00:46;;;;;;;7.03;5.07;;;14.20;99.90;;;;;;5149682;27;20188;-64
2023/06/17 03:03:12;;;;;;;6.93;4.73;;;14.30;99.90;;;;;;5149745;27;20189;-64
2023/06/17 03:05:38;;;;;;;6.03;4.90;;;14.30;99.90;;;;;;5149752;27;20208;-65
2023/06/17 03:08:06;;;;;;;6.03;5.43;;;14.30;99.90;;;;;;5149455;27;20467;-64
2023/06/17 03:10:32;;;;;;;8.37;5.87;;;14.40;99.90;;;;;;5149490;27;20414;-64
2023/06/17 03:12:57;;;;;;;11.43;5.43;;;14.30;99.90;;;;;;5149464;27;20422;-64
2023/06/17 03:15:23;;;;;;;6.37;4.87;;;14.20;99.90;;;;;;5149962;27;20438;-64
2023/06/17 03:17:49;;;;;;;9.03;4.97;;;14.10;99.90;;;;;;5149364;27;20273;-64
2023/06/17 03:20:15;;;;;;;7.00;4.70;;;14.00;99.90;;;;;;5149301;27;20907;-65
2023/06/17 03:22:41;;;;;;;5.07;4.53;;;14.00;99.90;;;;;;5130978;27;20288;-64
2023/06/17 03:25:07;;;;;;;8.70;4.93;;;14.10;99.90;;;;;;5149511;27;20185;-64
2023/06/17 03:27:33;;;;;;;9.97;5.50;;;14.10;99.90;;;;;;5151313;27;21196;-64
2023/06/17 03:29:59;;;;;;;5.20;4.70;;;14.10;99.90;;;;;;5152965;27;20434;-64
2023/06/17 03:32:25;;;;;;;6.50;5.50;;;14.20;99.90;;;;;;5153145;27;20466;-64
2023/06/17 03:34:52;;;;;;;5.70;4.67;;;14.10;99.90;;;;;;5153065;27;20449;-63
2023/06/17 03:37:19;;;;;;;14.00;5.00;;;14.00;99.90;;;;;;5153105;27;20602;-64
2023/06/17 03:39:44;;;;;;;6.60;4.90;;;13.90;99.90;;;;;;5152757;27;20533;-65
2023/06/17 03:42:10;;;;;;;11.10;4.47;;;13.90;99.90;;;;;;5153071;27;20509;-64
2023/06/17 03:44:35;;;;;;;12.80;5.57;;;13.90;99.90;;;;;;5152986;27;20183;-64
2023/06/17 03:47:02;;;;;;;6.73;4.80;;;14.00;99.90;;;;;;5152722;27;20213;-64
2023/06/17 03:49:28;;;;;;;9.73;4.97;;;14.00;99.90;;;;;;5152689;27;20207;-64
2023/06/17 03:51:54;;;;;;;6.43;4.90;;;14.10;99.90;;;;;;5153231;27;20414;-65
2023/06/17 03:54:19;;;;;;;6.60;4.63;;;14.10;99.90;;;;;;5152825;27;20189;-63
2023/06/17 03:56:45;;;;;;;5.57;4.80;;;14.10;99.90;;;;;;5152772;27;20275;-64
2023/06/17 03:59:11;;;;;;;8.60;4.93;;;14.00;99.90;;;;;;5152713;27;20208;-64
2023/06/17 04:01:36;;;;;;;8.80;4.60;;;14.00;99.90;;;;;;5152592;27;21115;-64
2023/06/17 04:04:03;;;;;;;6.83;4.97;;;13.90;99.90;;;;;;5152653;27;20234;-63
2023/06/17 04:06:28;;;;;;;6.17;5.07;;;13.90;99.90;;;;;;5152563;27;20267;-65
2023/06/17 04:08:54;;;;;;;9.00;5.40;;;13.90;99.90;;;;;;5133607;27;20568;-64
2023/06/17 04:11:19;;;;;;;7.83;4.90;;;14.00;99.90;;;;;;5152682;27;20183;-65
2023/06/17 04:13:45;;;;;;;7.23;4.67;;;14.00;99.90;;;;;;5152542;27;20185;-64
2023/06/17 04:16:11;;;;;;;5.87;5.27;;;13.90;99.90;;;;;;5152474;27;20185;-65
2023/06/17 04:18:36;;;;;;;6.47;5.40;;;13.90;99.90;;;;;;5152345;27;20196;-65
2023/06/17 04:21:02;;;;;;;7.07;5.30;;;14.00;99.90;;;;;;5152441;27;20184;-64
2023/06/17 04:23:27;;;;;;;7.27;4.63;;;13.90;99.90;;;;;;5152369;27;20260;-65
2023/06/17 04:25:56;;;;;;;6.37;5.23;;;14.00;99.90;;;;;;5152132;27;20939;-65
2023/06/17 04:28:23;;;;;;;13.07;4.77;;;14.10;99.90;;;;;;5152493;27;20245;-64
2023/06/17 04:30:51;;;;;;;6.73;5.03;;;14.30;99.90;;;;;;5152371;27;20418;-65
2023/06/17 04:33:17;;;;;;;6.57;5.77;;;14.40;99.90;;;;;;5152439;27;20180;-64
2023/06/17 04:35:44;;;;;;;6.90;5.17;;;14.60;99.90;;;;;;5152988;27;20411;-64
2023/06/17 04:38:10;;;;;;;6.30;5.00;;;14.70;99.90;;;;;;5152198;27;20204;-64
2023/06/17 04:40:37;;;;;;;7.30;5.20;;;14.80;99.90;;;;;;5152621;27;20427;-64
2023/06/17 04:43:03;;;;;;;12.27;7.07;;;14.70;99.90;;;;;;5152731;27;20840;-65
2023/06/17 04:45:29;;;;;;;7.00;4.90;;;14.70;99.90;;;;;;5152570;27;20422;-65
2023/06/17 04:47:54;;;;;;;10.00;6.20;;;14.70;99.90;;;;;;5152434;27;20458;-65
2023/06/17 04:50:20;;;;;;;6.00;5.40;;;14.80;99.90;;;;;;5152461;27;20188;-64
2023/06/17 04:52:51;;;;;;;7.40;5.17;;;14.80;99.90;;;;;;5152542;27;20707;-64
2023/06/17 04:55:18;;;;;;;7.37;5.37;;;14.90;99.90;;;;;;5152322;27;20474;-64
2023/06/17 04:57:44;;;;;;;5.57;4.93;;;15.00;99.90;;;;;;5152222;27;20423;-64
2023/06/17 05:00:12;;;;;;;7.43;5.60;;;15.00;99.90;;;;;;5151758;27;20425;-64
2023/06/17 05:02:39;;;;;;;9.83;5.67;;;15.10;99.90;;;;;;5133381;27;20446;-65
2023/06/17 05:05:05;;;;;;;6.03;5.23;;;15.20;99.90;;;;;;5152264;27;20802;-65
2023/06/17 05:07:32;;;;;;;7.70;5.07;;;15.20;99.90;;;;;;5151928;27;20455;-65
2023/06/17 05:09:57;;;;;;;7.53;5.30;;;15.20;99.90;;;;;;5151604;27;20811;-64
2023/06/17 05:12:23;;;;;;;7.10;4.70;;;15.40;99.90;;;;;;5151730;27;20468;-64
2023/06/17 05:14:48;;;;;;;12.33;5.20;;;15.50;99.90;;;;;;5151443;27;20214;-64
2023/06/17 05:17:14;;;;;;;8.87;4.77;;;15.50;99.90;;;;;;5151592;27;20190;-63
2023/06/17 05:19:40;;;;;;;5.83;5.13;;;15.60;99.90;;;;;;5151140;27;20217;-63
2023/06/17 05:22:05;;;;;;;7.43;5.53;;;15.80;99.90;;;;;;5151195;27;20334;-64
2023/06/17 05:24:31;;;;;;;10.03;5.00;;;15.90;99.90;;;;;;5132466;27;20181;-64
2023/06/17 05:26:56;;;;;;;7.73;4.90;;;16.10;99.90;;;;;;5151174;27;20205;-63
2023/06/17 05:29:22;;;;;;;10.30;5.20;;;16.20;99.90;;;;;;5151254;27;20234;-64
2023/06/17 05:31:48;;;;;;;7.73;5.83;;;16.30;99.90;;;;;;5151464;27;20185;-65
2023/06/17 05:34:13;;;;;;;5.00;4.50;;;16.30;99.90;;;;;;5151490;27;20243;-66
2023/06/17 05:36:39;;;;;;;6.50;5.33;;;16.40;99.90;;;;;;5151510;27;20182;-68
2023/06/17 05:39:05;;;;;;;10.80;5.70;;;16.60;99.90;;;;;;5151589;27;20684;-68
2023/06/17 05:41:30;;;;;;;7.43;5.00;;;16.70;99.90;;;;;;5132853;27;20665;-68
2023/06/17 05:43:56;;;;;;;6.20;5.50;;;16.80;99.90;;;;;;5151550;27;20195;-68
2023/06/17 05:46:21;;;;;;;7.13;4.90;;;17.00;99.90;;;;;;5151516;27;20208;-68
2023/06/17 05:48:47;;;;;;;10.70;5.23;;;17.20;99.90;;;;;;5151279;27;20219;-68
2023/06/17 05:51:15;;;;;;;6.73;4.93;;;17.20;99.90;;;;;;5151073;27;20274;-68
2023/06/17 05:53:40;;;;;;;14.80;5.33;;;17.30;99.90;;;;;;5151547;27;20253;-68
2023/06/17 05:56:09;;;;;;;5.77;5.20;;;17.30;99.90;;;;;;5151375;27;20868;-67
2023/06/17 05:58:36;;;;;;;7.67;5.83;;;17.50;99.90;;;;;;5151562;27;20201;-69
2023/06/17 06:01:02;;;;;;;6.83;5.90;;;17.50;99.90;;;;;;5151099;27;20788;-68
2023/06/17 06:03:27;;;;;;;8.07;5.13;;;17.60;99.90;;;;;;5150676;27;20450;-68
2023/06/17 06:05:53;;;;;;;6.10;5.50;;;17.80;99.90;;;;;;5131979;27;20228;-68
2023/06/17 06:08:18;;;;;;;11.53;5.00;;;18.00;99.90;;;;;;5131945;27;20207;-68
2023/06/17 06:10:44;;;;;;;8.53;5.57;;;18.20;99.90;;;;;;5132222;27;20195;-68
2023/06/17 06:13:10;;;;;;;9.20;6.23;;;18.30;99.90;;;;;;5150534;27;20213;-67
2023/06/17 06:15:36;;;;;;;6.97;5.60;;;18.20;99.90;;;;;;5131878;27;20592;-67
2023/06/17 06:18:01;;;;;;;6.40;5.70;;;18.20;99.90;;;;;;5131721;27;20460;-67
2023/06/17 06:20:27;;;;;;;13.80;5.40;;;18.30;99.90;;;;;;5150417;27;20190;-68
2023/06/17 06:22:53;;;;;;;8.70;5.93;;;18.50;99.90;;;;;;5150474;27;20183;-67
2023/06/17 06:25:19;;;;;;;6.33;5.03;;;18.70;99.90;;;;;;5131532;27;20191;-68
2023/06/17 06:27:44;;;;;;;9.17;5.10;;;19.00;99.90;;;;;;5130959;27;21027;-68
2023/06/17 06:30:12;;;;;;;9.30;5.70;;;19.00;99.90;;;;;;5131140;27;20185;-68
2023/06/17 06:32:37;;;;;;;10.53;5.93;;;19.20;99.90;;;;;;5149953;27;20669;-68
2023/06/17 06:35:04;;;;;;;7.07;5.23;;;19.40;99.90;;;;;;5131491;27;20562;-68
2023/06/17 06:37:29;;;;;;;7.40;4.97;;;19.50;99.90;;;;;;5149950;27;20194;-69
2023/06/17 06:39:55;;;;;;;7.87;5.40;;;19.70;99.90;;;;;;5131374;27;20826;-68
2023/06/17 06:42:21;;;;;;;6.83;4.83;;;19.80;99.90;;;;;;5149949;27;20199;-67
2023/06/17 06:44:47;;;;;;;11.77;5.47;;;20.10;99.90;;;;;;5149870;27;20189;-67
2023/06/17 06:47:13;;;;;;;6.73;5.07;;;20.10;99.90;;;;;;5149858;27;20221;-67
2023/06/17 06:49:39;;;;;;;5.60;5.10;;;20.10;99.90;;;;;;5131243;27;20838;-67
2023/06/17 06:52:05;;;;;;;9.80;5.27;;;20.10;99.90;;;;;;5131073;27;20183;-67
2023/06/17 06:54:30;;;;;;;6.80;4.97;;;20.30;99.90;;;;;;5131185;27;20188;-68
2023/06/17 06:56:56;;;;;;;13.53;5.53;;;20.40;99.90;;;;;;5130983;27;20187;-68
2023/06/17 06:59:22;;;;;;;8.17;4.97;;;20.40;99.90;;;;;;5149610;27;20199;-68
2023/06/17 07:01:47;;;;;;;7.73;5.17;;;20.50;99.90;;;;;;5132188;27;20412;-67
2023/06/17 07:04:13;;;;;;;13.50;5.37;;;20.50;99.90;;;;;;5153835;27;20305;-67
2023/06/17 07:06:39;;;;;;;11.10;4.90;;;20.70;99.90;;;;;;5134923;27;20672;-67
2023/06/17 07:09:05;;;;;;;11.83;5.17;;;20.90;99.90;;;;;;5153431;27;20761;-67
2023/06/17 07:11:31;;;;;;;9.53;5.10;;;20.90;99.90;;;;;;5135017;27;20525;-68
2023/06/17 07:13:56;;;;;;;7.47;5.50;;;21.00;99.90;;;;;;5117754;27;20214;-68
2023/06/17 07:16:22;;;;;;;6.03;5.10;;;21.10;99.90;;;;;;5153463;27;20176;-68
2023/06/17 07:18:47;;;;;;;13.23;6.20;;;21.20;99.90;;;;;;5153419;27;20208;-68
2023/06/17 07:21:13;;;;;;;6.80;5.50;;;21.30;99.90;;;;;;5153317;27;20184;-68
2023/06/17 07:23:39;;;;;;;9.97;5.40;;;21.30;99.90;;;;;;5134896;27;20291;-68
2023/06/17 07:26:05;;;;;;;6.60;4.87;;;21.40;99.90;;;;;;5153227;27;20201;-67
2023/06/17 07:28:31;;;;;;;8.83;5.47;;;21.60;99.90;;;;;;5153064;27;20736;-68
2023/06/17 07:30:57;;;;;;;11.27;5.70;;;21.70;99.90;;;;;;5153402;27;20432;-68
2023/06/17 07:33:25;;;;;;;12.43;5.10;;;21.90;99.90;;;;;;5153193;27;20418;-69
2023/06/17 07:35:50;;;;;;;8.73;5.07;;;22.00;99.90;;;;;;5152930;27;20207;-69
2023/06/17 07:38:16;;;;;;;10.03;5.53;;;22.00;99.90;;;;;;5134339;27;20473;-67
2023/06/17 07:40:42;;;;;;;7.80;5.70;;;22.10;99.90;;;;;;5134292;27;20181;-67
2023/06/17 07:43:09;;;;;;;9.70;5.27;;;22.10;99.90;;;;;;5152734;27;20185;-68
2023/06/17 07:45:34;;;;;;;9.67;5.73;;;22.20;99.90;;;;;;5152710;27;20665;-68
2023/06/17 07:48:00;;;;;;;9.97;5.73;;;22.30;99.90;;;;;;5152519;27;20469;-68
2023/06/17 07:50:26;;;;;;;8.40;4.87;;;22.40;99.90;;;;;;5117086;27;20265;-68
2023/06/17 07:52:52;;;;;;;7.87;5.50;;;22.60;99.90;;;;;;5152910;27;20180;-68
2023/06/17 07:55:18;;;;;;;8.77;5.67;;;22.70;99.90;;;;;;5134314;27;20217;-69
2023/06/17 07:57:44;;;;;;;9.20;6.67;;;22.80;99.90;;;;;;5152785;27;20455;-68
2023/06/17 08:00:12;;;;;;;6.87;5.60;;;22.90;99.90;;;;;;5152432;27;20208;-68
2023/06/17 08:02:40;;;;;;;7.27;6.30;;;22.90;99.90;;;;;;5152624;27;20281;-68
2023/06/17 08:05:06;;;;;;;9.00;6.27;;;23.00;99.90;;;;;;5133724;27;20538;-68
2023/06/17 08:07:32;;;;;;;9.60;5.80;;;23.20;99.90;;;;;;5152534;27;20534;-69
2023/06/17 08:09:57;;;;;;;10.63;6.03;;;23.30;99.90;;;;;;5152323;27;20470;-69
2023/06/17 08:12:23;;;;;;;7.30;5.43;;;23.40;99.90;;;;;;5151981;27;20182;-68
2023/06/17 08:14:49;;;;;;;12.37;5.30;;;23.50;99.90;;;;;;5152220;27;20185;-69
2023/06/17 08:17:14;;;;;;;9.50;5.20;;;23.60;99.90;;;;;;5152402;27;20187;-67
2023/06/17 08:19:40;;;;;;;6.77;5.63;;;23.70;99.90;;;;;;5151964;27;20203;-68
2023/06/17 08:22:06;;;;;;;7.70;5.63;;;23.80;99.90;;;;;;5133616;27;20182;-69
2023/06/17 08:24:32;;;;;;;6.40;5.80;;;24.00;99.90;;;;;;5133353;27;20465;-68
2023/06/17 08:26:58;;;;;;;10.40;6.77;;;24.10;99.90;;;;;;5133145;27;20474;-66
2023/06/17 08:29:23;;;;;;;6.80;5.63;;;24.10;99.90;;;;;;5152330;27;20715;-69
2023/06/17 08:31:51;;;;;;;7.20;6.47;;;24.10;99.90;;;;;;5152242;27;20906;-68
2023/06/17 08:34:17;;;;;;;8.07;5.50;;;24.20;99.90;;;;;;5152233;27;20182;-69
2023/06/17 08:36:44;;;;;;;5.90;5.40;;;24.30;96.50;;;;;;5152310;27;20468;-68
2023/06/17 08:39:10;;;;;;;11.90;5.90;;;24.60;95.80;;;;;;5152567;27;20466;-68
2023/06/17 08:41:42;;;;;;;5.77;5.20;;;24.70;96.50;;;;;;5152586;27;20984;-69
2023/06/17 08:44:13;;;;;;;7.63;5.20;;;25.00;97.00;;;;;;5134154;27;20499;-69
2023/06/17 08:46:43;;;;;;;7.57;5.50;;;25.20;95.70;;;;;;5152734;27;20443;-68
2023/06/17 08:49:12;;;;;;;6.90;5.43;;;25.30;95.00;;;;;;5152342;27;20892;-68
2023/06/17 08:51:38;;;;;;;6.47;5.87;;;25.50;95.30;;;;;;5152538;27;20406;-68
2023/06/17 08:54:04;;;;;;;8.03;5.70;;;25.70;95.70;;;;;;5152431;27;20421;-68
2023/06/17 08:56:30;;;;;;;8.57;5.37;;;26.00;95.00;;;;;;5152397;27;20420;-68
2023/06/17 08:58:56;;;;;;;8.13;6.07;;;26.20;94.80;;;;;;5151951;27;20449;-69
2023/06/17 09:01:23;;;;;;;15.30;6.13;;;26.40;94.20;;;;;;5152120;27;20770;-68
2023/06/17 09:03:53;;;;;;;15.33;6.13;;;26.50;93.80;;;;;;5152004;27;20417;-68
2023/06/17 09:06:25;;;;;;;7.00;5.50;;;26.40;93.10;;;;;;5151732;27;20966;-68
2023/06/17 09:08:52;;;;;;;6.20;5.37;;;26.60;93.50;;;;;;5151416;27;20519;-68
2023/06/17 09:11:22;;;;;;;9.50;5.60;;;26.80;92.90;;;;;;5133285;27;20421;-69
2023/06/17 09:13:51;;;;;;;7.50;5.70;;;27.00;92.70;;;;;;5151887;27;20414;-69
2023/06/17 09:16:30;;;;;;;5.67;4.87;;;27.20;91.60;;;;;;5151435;27;20442;-68
2023/06/17 09:18:56;;;;;;;5.67;5.17;;;27.40;90.20;;;;;;5133358;27;20454;-68
2023/06/17 09:21:22;;;;;;;13.17;5.37;;;27.70;88.90;;;;;;5151455;27;20454;-68
2023/06/17 09:23:59;;;;;;;15.03;4.80;;;27.80;90.50;;;;;;5151364;27;20816;-68
2023/06/17 09:26:35;;;;;;;5.73;4.87;;;27.80;87.50;;;;;;5151035;27;21170;-68
2023/06/17 09:29:02;;;;;;;4.80;4.37;;;28.30;86.70;;;;;;5151225;27;20994;-68
2023/06/17 09:31:29;;;;;;;5.60;5.10;;;28.60;83.60;;;;;;5151282;27;20413;-68
2023/06/17 09:33:54;;;;;;;6.73;4.30;;;28.60;83.20;;;;;;5150853;27;20424;-68
2023/06/17 09:36:22;;;;;;;5.30;4.77;;;28.80;81.60;;;;;;5151136;27;20406;-68
2023/06/17 09:38:51;;;;;;;5.83;4.70;;;28.80;82.70;;;;;;5150862;27;20467;-68
2023/06/17 09:41:18;;;;;;;10.80;4.83;;;29.00;82.50;;;;;;5132748;27;20431;-68
2023/06/17 09:43:51;;;;;;;7.47;5.37;;;29.30;82.10;;;;;;5150729;27;20470;-68
2023/06/17 09:46:25;;;;;;;4.93;4.43;;;29.30;80.00;;;;;;5150724;27;20462;-69
2023/06/17 09:48:52;;;;;;;5.00;4.10;;;29.50;80.30;;;;;;5132276;27;20981;-69
2023/06/17 09:51:21;;;;;;;6.07;4.00;;;29.60;77.50;;;;;;5131901;27;20802;-70
2023/06/17 09:53:52;;;;;;;6.73;4.37;;;29.60;78.70;;;;;;5150692;27;20421;-70
2023/06/17 09:56:19;;;;;;;7.20;4.37;;;29.80;79.20;;;;;;5150742;27;20468;-70
2023/06/17 09:58:47;;;;;;;7.60;4.00;;;30.30;79.00;;;;;;5132367;27;20429;-71
2023/06/17 10:01:13;;;;;;;5.10;4.53;;;30.20;77.80;;;;;;5151232;27;20958;-70
2023/06/17 10:03:42;;;;;;;4.53;4.13;;;29.50;76.50;;;;;;5151218;27;20441;-70
2023/06/17 10:06:10;;;;;;;5.27;4.53;;;29.50;75.30;;;;;;5132911;27;20425;-68
2023/06/17 10:08:39;;;;;;;5.43;4.10;;;29.80;79.00;;;;;;5151114;27;20504;-70
2023/06/17 10:11:04;;;;;;;3.23;2.97;;;30.00;75.00;;;;;;5151298;27;20442;-70
2023/06/17 10:13:36;;;;;;;4.00;3.70;;;30.30;73.10;;;;;;5151118;27;20437;-70
2023/06/17 10:16:04;;;;;;;5.07;3.60;;;30.30;70.40;;;;;;5150930;27;20233;-70
2023/06/17 10:18:32;;;;;;;3.97;3.67;;;30.40;71.00;;;;;;5150736;27;20534;-70
2023/06/17 10:21:00;;;;;;;6.50;3.67;;;30.50;74.30;;;;;;5150204;27;20964;-70
2023/06/17 10:23:26;;;;;;;5.33;3.67;;;30.70;72.30;;;;;;5150101;27;20906;-70
2023/06/17 10:25:53;;;;;;;7.83;4.03;;;30.70;71.20;;;;;;5150126;27;20456;-68
2023/06/17 10:28:19;;;;;;;3.77;3.47;;;30.80;73.80;;;;;;5150178;27;21092;-69
2023/06/17 10:30:48;;;;;;;5.20;3.67;;;30.40;73.90;;;;;;5150163;27;20472;-68
2023/06/17 10:33:14;;;;;;;5.67;4.00;;;30.40;73.90;;;;;;5149962;27;20181;-67
2023/06/17 10:35:50;;;;;;;6.30;3.87;;;30.10;73.70;;;;;;5132390;27;20421;-66
2023/06/17 10:38:29;;;;;;;4.90;3.57;;;29.90;72.00;;;;;;5154402;27;20200;-68
2023/06/17 10:40:56;;;;;;;9.60;4.77;;;29.90;72.70;;;;;;5135102;27;20431;-68
2023/06/17 10:43:22;;;;;;;6.30;3.77;;;30.00;73.50;;;;;;5154292;27;20888;-68
2023/06/17 10:45:49;;;;;;;7.27;4.17;;;30.10;73.60;;;;;;5135598;27;20429;-68
2023/06/17 10:48:23;;;;;;;7.80;3.70;;;29.90;71.40;;;;;;5154172;27;20208;-68
2023/06/17 10:50:57;;;;;;;5.43;3.90;;;30.00;72.10;;;;;;5135618;27;20412;-68
2023/06/17 10:53:31;;;;;;;4.27;3.67;;;29.40;71.90;;;;;;5154882;27;20497;-70
2023/06/17 10:55:57;;;;;;;5.40;4.20;;;29.50;73.50;;;;;;5154522;27;20406;-70
2023/06/17 10:58:30;;;;;;;4.30;3.70;;;29.60;72.40;;;;;;5154779;27;20426;-68
2023/06/17 11:01:07;;;;;;;7.63;4.40;;;29.40;73.70;;;;;;5135659;27;20436;-71
2023/06/17 11:03:34;;;;;;;6.90;4.87;;;29.40;73.10;;;;;;5135395;27;20425;-67
2023/06/17 11:06:05;;;;;;;8.70;4.17;;;29.00;73.20;;;;;;5135552;27;20417;-70
2023/06/17 11:08:32;;;;;;;5.20;4.20;;;28.70;73.00;;;;;;5153944;27;20494;-70
2023/06/17 11:11:13;;;;;;;5.73;4.20;;;28.20;72.70;;;;;;5153805;27;20938;-72
2023/06/17 11:13:47;;;;;;;7.67;4.33;;;28.40;74.90;;;;;;5153846;27;20410;-71
2023/06/17 11:16:12;;;;;;;5.63;4.10;;;28.60;73.70;;;;;;5134913;27;20413;-70
2023/06/17 11:18:42;;;;;;;4.87;3.83;;;28.60;72.10;;;;;;5153376;27;20441;-71
2023/06/17 11:21:09;;;;;;;8.93;4.57;;;28.70;73.70;;;;;;5153705;27;20549;-72
2023/06/17 11:23:38;;;;;;;8.27;5.20;;;28.80;75.80;;;;;;5153831;27;20410;-69
2023/06/17 11:26:05;;;;;;;4.20;3.70;;;29.20;75.40;;;;;;5153766;27;20417;-72
2023/06/17 11:28:31;;;;;;;9.20;4.63;;;29.30;75.60;;;;;;5154265;27;20555;-70
2023/06/17 11:30:57;;;;;;;5.90;4.70;;;29.50;75.90;;;;;;5119928;27;20424;-77
2023/06/17 11:33:23;;;;;;;5.23;4.00;;;29.50;75.90;;;;;;5137531;27;20836;-76
2023/06/17 11:35:52;;;;;;;4.80;4.40;;;29.60;75.70;;;;;;5138956;27;20436;-76
2023/06/17 11:38:18;;;;;;;6.83;4.40;;;29.70;75.70;;;;;;5154616;27;20528;-78
2023/06/17 11:40:44;;;;;;;8.47;4.53;;;29.80;75.20;;;;;;5154727;27;20416;-75
2023/06/17 11:43:10;;;;;;;15.97;4.47;;;29.60;75.20;;;;;;5153898;27;20432;-71
2023/06/17 11:45:37;;;;;;;5.40;4.90;;;29.60;74.90;;;;;;5152976;27;20414;-70
2023/06/17 11:48:09;;;;;;;5.57;4.77;;;29.50;75.00;;;;;;5151900;27;20261;-70
2023/06/17 11:50:37;;;;;;;6.00;4.80;;;29.70;76.00;;;;;;5152801;27;20443;-70
2023/06/17 11:53:03;;;;;;;7.17;4.83;;;29.90;75.20;;;;;;5152556;27;20421;-70
2023/06/17 11:55:33;;;;;;;8.13;5.70;;;29.80;74.90;;;;;;5152691;27;20967;-70
2023/06/17 11:58:03;;;;;;;6.80;5.50;;;29.70;76.40;;;;;;5153380;27;20202;-70
2023/06/17 12:00:35;;;;;;;6.20;5.67;;;29.70;74.60;;;;;;5153085;27;20410;-73
2023/06/17 12:03:00;;;;;;;12.23;5.50;;;29.70;75.90;;;;;;5154050;27;20529;-72
2023/06/17 12:05:30;;;;;;;6.47;4.90;;;29.90;76.10;;;;;;5134724;27;20985;-70
2023/06/17 12:08:00;;;;;;;7.30;5.20;;;30.10;77.40;;;;;;5152939;27;20209;-73
2023/06/17 12:10:26;;;;;;;6.67;6.07;;;30.30;75.70;;;;;;5154502;27;20410;-70
2023/06/17 12:12:56;;;;;;;5.93;5.33;;;29.90;74.50;;;;;;5153847;27;20410;-76
2023/06/17 12:15:28;;;;;;;7.13;4.87;;;29.50;75.30;;;;;;5135387;27;20493;-72
2023/06/17 12:17:54;;;;;;;6.87;5.30;;;29.70;76.20;;;;;;5152809;27;20443;-70
2023/06/17 12:20:21;;;;;;;7.63;5.53;;;29.80;75.80;;;;;;5152834;27;20450;-70
2023/06/17 12:22:48;;;;;;;6.50;5.40;;;29.90;75.90;;;;;;5152293;27;20184;-71
2023/06/17 12:25:14;;;;;;;12.43;5.40;;;29.90;75.20;;;;;;5152282;27;20501;-73
2023/06/17 12:27:41;;;;;;;9.10;5.70;;;29.70;74.40;;;;;;5152059;27;20565;-69
2023/06/17 12:30:07;;;;;;;10.00;5.20;;;29.80;75.40;;;;;;5152056;27;20647;-71
2023/06/17 12:32:34;;;;;;;5.97;5.43;;;29.90;75.60;;;;;;5152074;27;20409;-71
2023/06/17 12:34:59;;;;;;;5.43;4.80;;;29.70;75.00;;;;;;5152150;27;20409;-73
2023/06/17 12:37:27;;;;;;;5.43;4.90;;;29.80;75.20;;;;;;5133107;27;20430;-72
2023/06/17 12:39:56;;;;;;;5.23;4.60;;;29.70;75.60;;;;;;5151893;27;20197;-72
2023/06/17 12:42:22;;;;;;;6.77;5.93;;;29.50;75.20;;;;;;5151951;27;20422;-72
2023/06/17 12:44:48;;;;;;;7.33;5.53;;;29.40;74.60;;;;;;5152350;27;21151;-69